sensor_id;sensor_type;location;lat;lon;timestamp;P1;durP1;ratioP1;P2;durP2;ratioP2
46110;SDS011;31849;55.992;37.252;2022-08-16T00:03:42;12.05;;;7.45;;
46110;SDS011;31849;55.992;37.252;2022-08-16T00:08:46;10.82;;;7.13;;
46110;SDS011;31849;55.992;37.252;2022-08-16T00:13:50;14.10;;;7.00;;
46110;SDS011;31849;55.992;37.252;2022-08-16T00:18:56;14.85;;;7.07;;
46110;SDS011;31849;55.992;37.252;2022-08-16T00:24:00;15.95;;;7.50;;
46110;SDS011;31849;55.992;37.252;2022-08-16T00:29:07;12.48;;;7.07;;
46110;SDS011;31849;55.992;37.252;2022-08-16T00:34:11;15.30;;;7.20;;
46110;SDS011;31849;55.992;37.252;2022-08-16T00:39:19;16.60;;;7.65;;
46110;SDS011;31849;55.992;37.252;2022-08-16T00:44:24;13.43;;;7.37;;
46110;SDS011;31849;55.992;37.252;2022-08-16T00:49:33;12.10;;;7.63;;
46110;SDS011;31849;55.992;37.252;2022-08-16T00:54:44;11.63;;;7.22;;
46110;SDS011;31849;55.992;37.252;2022-08-16T00:59:50;10.75;;;7.88;;
46110;SDS011;31849;55.992;37.252;2022-08-16T01:05:00;14.07;;;7.20;;
46110;SDS011;31849;55.992;37.252;2022-08-16T01:10:12;14.35;;;8.00;;
46110;SDS011;31849;55.992;37.252;2022-08-16T01:15:18;13.30;;;8.32;;
46110;SDS011;31849;55.992;37.252;2022-08-16T01:20:24;19.88;;;7.82;;
46110;SDS011;31849;55.992;37.252;2022-08-16T01:25:37;11.00;;;7.78;;
46110;SDS011;31849;55.992;37.252;2022-08-16T01:30:46;11.73;;;8.00;;
46110;SDS011;31849;55.992;37.252;2022-08-16T01:35:55;14.73;;;7.40;;
46110;SDS011;31849;55.992;37.252;2022-08-16T01:41:03;13.85;;;8.10;;
46110;SDS011;31849;55.992;37.252;2022-08-16T01:46:16;13.52;;;7.82;;
46110;SDS011;31849;55.992;37.252;2022-08-16T01:51:39;13.77;;;7.40;;
46110;SDS011;31849;55.992;37.252;2022-08-16T01:56:46;13.40;;;7.60;;
46110;SDS011;31849;55.992;37.252;2022-08-16T02:01:51;10.88;;;7.25;;
46110;SDS011;31849;55.992;37.252;2022-08-16T02:07:00;12.43;;;7.72;;
46110;SDS011;31849;55.992;37.252;2022-08-16T02:12:13;12.23;;;7.55;;
46110;SDS011;31849;55.992;37.252;2022-08-16T02:17:37;12.38;;;7.40;;
46110;SDS011;31849;55.992;37.252;2022-08-16T02:22:41;8.77;;;6.70;;
46110;SDS011;31849;55.992;37.252;2022-08-16T02:27:48;14.65;;;7.97;;
46110;SDS011;31849;55.992;37.252;2022-08-16T02:32:52;10.90;;;6.80;;
46110;SDS011;31849;55.992;37.252;2022-08-16T02:37:56;15.25;;;7.88;;
46110;SDS011;31849;55.992;37.252;2022-08-16T02:43:10;11.15;;;7.18;;
46110;SDS011;31849;55.992;37.252;2022-08-16T02:48:15;17.00;;;7.43;;
46110;SDS011;31849;55.992;37.252;2022-08-16T02:53:31;10.43;;;6.95;;
46110;SDS011;31849;55.992;37.252;2022-08-16T02:58:37;13.68;;;7.53;;
46110;SDS011;31849;55.992;37.252;2022-08-16T03:03:44;15.57;;;7.75;;
46110;SDS011;31849;55.992;37.252;2022-08-16T03:09:08;11.93;;;8.07;;
46110;SDS011;31849;55.992;37.252;2022-08-16T03:14:18;10.63;;;7.13;;
46110;SDS011;31849;55.992;37.252;2022-08-16T03:19:25;12.27;;;7.53;;
46110;SDS011;31849;55.992;37.252;2022-08-16T03:24:49;12.07;;;6.93;;
46110;SDS011;31849;55.992;37.252;2022-08-16T03:29:54;12.67;;;6.77;;
46110;SDS011;31849;55.992;37.252;2022-08-16T03:34:57;11.30;;;6.95;;
46110;SDS011;31849;55.992;37.252;2022-08-16T03:40:00;12.80;;;7.00;;
46110;SDS011;31849;55.992;37.252;2022-08-16T03:45:06;11.82;;;7.20;;
46110;SDS011;31849;55.992;37.252;2022-08-16T03:50:12;13.50;;;7.18;;
46110;SDS011;31849;55.992;37.252;2022-08-16T03:55:30;13.85;;;7.10;;
46110;SDS011;31849;55.992;37.252;2022-08-16T04:00:47;11.70;;;7.30;;
46110;SDS011;31849;55.992;37.252;2022-08-16T04:06:00;14.70;;;6.97;;
46110;SDS011;31849;55.992;37.252;2022-08-16T04:11:03;12.80;;;7.45;;
46110;SDS011;31849;55.992;37.252;2022-08-16T04:16:09;17.38;;;6.72;;
46110;SDS011;31849;55.992;37.252;2022-08-16T04:21:28;12.70;;;6.65;;
46110;SDS011;31849;55.992;37.252;2022-08-16T04:26:33;8.70;;;6.40;;
46110;SDS011;31849;55.992;37.252;2022-08-16T04:31:38;11.68;;;6.82;;
46110;SDS011;31849;55.992;37.252;2022-08-16T04:36:44;10.50;;;6.43;;
46110;SDS011;31849;55.992;37.252;2022-08-16T04:41:49;8.55;;;6.13;;
46110;SDS011;31849;55.992;37.252;2022-08-16T04:46:59;12.10;;;6.65;;
46110;SDS011;31849;55.992;37.252;2022-08-16T04:52:22;9.75;;;6.35;;
46110;SDS011;31849;55.992;37.252;2022-08-16T04:57:36;11.10;;;6.82;;
46110;SDS011;31849;55.992;37.252;2022-08-16T05:02:43;8.38;;;6.35;;
46110;SDS011;31849;55.992;37.252;2022-08-16T05:07:55;9.35;;;6.18;;
46110;SDS011;31849;55.992;37.252;2022-08-16T05:13:01;9.65;;;5.72;;
46110;SDS011;31849;55.992;37.252;2022-08-16T05:18:08;9.98;;;6.20;;
46110;SDS011;31849;55.992;37.252;2022-08-16T05:23:17;9.55;;;5.82;;
46110;SDS011;31849;55.992;37.252;2022-08-16T05:28:21;10.65;;;6.18;;
46110;SDS011;31849;55.992;37.252;2022-08-16T05:33:39;9.40;;;6.00;;
46110;SDS011;31849;55.992;37.252;2022-08-16T05:38:43;9.88;;;6.13;;
46110;SDS011;31849;55.992;37.252;2022-08-16T05:43:47;9.65;;;5.85;;
46110;SDS011;31849;55.992;37.252;2022-08-16T05:49:01;10.38;;;5.88;;
46110;SDS011;31849;55.992;37.252;2022-08-16T05:54:10;10.70;;;6.18;;
46110;SDS011;31849;55.992;37.252;2022-08-16T05:59:25;9.65;;;6.00;;
46110;SDS011;31849;55.992;37.252;2022-08-16T06:04:30;12.95;;;6.03;;
46110;SDS011;31849;55.992;37.252;2022-08-16T06:09:37;10.75;;;6.00;;
46110;SDS011;31849;55.992;37.252;2022-08-16T06:14:45;13.23;;;5.80;;
46110;SDS011;31849;55.992;37.252;2022-08-16T06:19:53;10.95;;;5.97;;
46110;SDS011;31849;55.992;37.252;2022-08-16T06:24:56;9.07;;;5.90;;
46110;SDS011;31849;55.992;37.252;2022-08-16T06:30:01;15.90;;;5.80;;
46110;SDS011;31849;55.992;37.252;2022-08-16T06:35:07;17.02;;;5.85;;
46110;SDS011;31849;55.992;37.252;2022-08-16T06:40:12;9.85;;;5.78;;
46110;SDS011;31849;55.992;37.252;2022-08-16T06:45:16;11.30;;;5.40;;
46110;SDS011;31849;55.992;37.252;2022-08-16T06:50:22;9.07;;;5.38;;
46110;SDS011;31849;55.992;37.252;2022-08-16T06:55:30;12.17;;;5.47;;
46110;SDS011;31849;55.992;37.252;2022-08-16T07:00:38;15.73;;;5.22;;
46110;SDS011;31849;55.992;37.252;2022-08-16T07:05:45;8.10;;;4.97;;
46110;SDS011;31849;55.992;37.252;2022-08-16T07:10:49;9.43;;;5.28;;
46110;SDS011;31849;55.992;37.252;2022-08-16T07:15:53;10.35;;;5.32;;
46110;SDS011;31849;55.992;37.252;2022-08-16T07:20:58;11.10;;;4.93;;
46110;SDS011;31849;55.992;37.252;2022-08-16T07:26:04;9.02;;;4.95;;
46110;SDS011;31849;55.992;37.252;2022-08-16T07:31:09;8.25;;;4.82;;
46110;SDS011;31849;55.992;37.252;2022-08-16T07:36:16;7.68;;;4.70;;
46110;SDS011;31849;55.992;37.252;2022-08-16T07:41:22;9.48;;;4.97;;
46110;SDS011;31849;55.992;37.252;2022-08-16T07:46:27;9.30;;;5.00;;
46110;SDS011;31849;55.992;37.252;2022-08-16T07:51:41;7.20;;;4.50;;
46110;SDS011;31849;55.992;37.252;2022-08-16T07:56:45;8.32;;;3.90;;
46110;SDS011;31849;55.992;37.252;2022-08-16T08:01:49;6.75;;;3.95;;
46110;SDS011;31849;55.992;37.252;2022-08-16T08:06:55;8.35;;;4.18;;
46110;SDS011;31849;55.992;37.252;2022-08-16T08:11:58;10.75;;;4.45;;
46110;SDS011;31849;55.992;37.252;2022-08-16T08:17:06;10.45;;;4.10;;
46110;SDS011;31849;55.992;37.252;2022-08-16T08:22:11;8.93;;;4.10;;
46110;SDS011;31849;55.992;37.252;2022-08-16T08:27:22;6.68;;;3.45;;
46110;SDS011;31849;55.992;37.252;2022-08-16T08:32:26;10.05;;;3.72;;
46110;SDS011;31849;55.992;37.252;2022-08-16T08:37:51;11.25;;;3.70;;
46110;SDS011;31849;55.992;37.252;2022-08-16T08:42:57;6.68;;;3.67;;
46110;SDS011;31849;55.992;37.252;2022-08-16T08:48:18;7.93;;;4.00;;
46110;SDS011;31849;55.992;37.252;2022-08-16T08:53:37;11.30;;;4.20;;
46110;SDS011;31849;55.992;37.252;2022-08-16T08:58:41;8.93;;;4.28;;
46110;SDS011;31849;55.992;37.252;2022-08-16T09:04:00;7.82;;;3.70;;
46110;SDS011;31849;55.992;37.252;2022-08-16T09:09:06;9.07;;;3.85;;
46110;SDS011;31849;55.992;37.252;2022-08-16T09:14:17;6.65;;;3.40;;
46110;SDS011;31849;55.992;37.252;2022-08-16T09:19:24;7.20;;;3.80;;
46110;SDS011;31849;55.992;37.252;2022-08-16T09:24:35;6.38;;;3.90;;
46110;SDS011;31849;55.992;37.252;2022-08-16T09:29:54;10.63;;;4.20;;
46110;SDS011;31849;55.992;37.252;2022-08-16T09:35:02;7.25;;;3.70;;
46110;SDS011;31849;55.992;37.252;2022-08-16T09:40:09;7.97;;;4.20;;
46110;SDS011;31849;55.992;37.252;2022-08-16T09:45:33;8.40;;;4.25;;
46110;SDS011;31849;55.992;37.252;2022-08-16T09:50:40;11.82;;;4.22;;
46110;SDS011;31849;55.992;37.252;2022-08-16T09:55:47;6.53;;;4.30;;
46110;SDS011;31849;55.992;37.252;2022-08-16T10:00:51;7.43;;;4.20;;
46110;SDS011;31849;55.992;37.252;2022-08-16T10:05:57;10.45;;;4.40;;
46110;SDS011;31849;55.992;37.252;2022-08-16T10:11:02;9.45;;;4.25;;
46110;SDS011;31849;55.992;37.252;2022-08-16T10:16:25;8.00;;;4.10;;
46110;SDS011;31849;55.992;37.252;2022-08-16T10:21:30;9.10;;;5.13;;
46110;SDS011;31849;55.992;37.252;2022-08-16T10:26:36;5.95;;;4.20;;
46110;SDS011;31849;55.992;37.252;2022-08-16T10:31:59;6.90;;;4.50;;
46110;SDS011;31849;55.992;37.252;2022-08-16T10:37:04;7.97;;;4.38;;
46110;SDS011;31849;55.992;37.252;2022-08-16T10:42:10;8.20;;;4.32;;
46110;SDS011;31849;55.992;37.252;2022-08-16T10:47:15;7.75;;;4.20;;
46110;SDS011;31849;55.992;37.252;2022-08-16T10:52:18;9.20;;;4.30;;
46110;SDS011;31849;55.992;37.252;2022-08-16T10:57:26;8.27;;;4.10;;
46110;SDS011;31849;55.992;37.252;2022-08-16T11:02:33;11.35;;;4.57;;
46110;SDS011;31849;55.992;37.252;2022-08-16T11:07:57;8.25;;;4.78;;
46110;SDS011;31849;55.992;37.252;2022-08-16T11:13:09;9.45;;;4.30;;
46110;SDS011;31849;55.992;37.252;2022-08-16T11:18:34;5.32;;;4.35;;
46110;SDS011;31849;55.992;37.252;2022-08-16T11:23:58;8.07;;;4.30;;
46110;SDS011;31849;55.992;37.252;2022-08-16T11:29:03;7.00;;;4.72;;
46110;SDS011;31849;55.992;37.252;2022-08-16T11:34:16;4.95;;;4.10;;
46110;SDS011;31849;55.992;37.252;2022-08-16T11:39:21;10.13;;;4.72;;
46110;SDS011;31849;55.992;37.252;2022-08-16T11:44:26;9.60;;;4.70;;
46110;SDS011;31849;55.992;37.252;2022-08-16T11:49:49;8.25;;;4.68;;
46110;SDS011;31849;55.992;37.252;2022-08-16T11:54:53;7.30;;;4.80;;
46110;SDS011;31849;55.992;37.252;2022-08-16T12:00:02;7.90;;;4.82;;
46110;SDS011;31849;55.992;37.252;2022-08-16T12:05:28;8.50;;;4.90;;
46110;SDS011;31849;55.992;37.252;2022-08-16T12:10:33;9.43;;;5.55;;
46110;SDS011;31849;55.992;37.252;2022-08-16T12:15:40;8.52;;;4.55;;
46110;SDS011;31849;55.992;37.252;2022-08-16T12:20:48;7.38;;;4.20;;
46110;SDS011;31849;55.992;37.252;2022-08-16T12:25:55;4.75;;;3.85;;
46110;SDS011;31849;55.992;37.252;2022-08-16T12:31:01;5.50;;;4.03;;
46110;SDS011;31849;55.992;37.252;2022-08-16T12:36:05;5.78;;;4.80;;
46110;SDS011;31849;55.992;37.252;2022-08-16T12:41:13;8.40;;;4.55;;
46110;SDS011;31849;55.992;37.252;2022-08-16T12:46:26;6.32;;;3.95;;
46110;SDS011;31849;55.992;37.252;2022-08-16T12:51:33;7.82;;;4.20;;
46110;SDS011;31849;55.992;37.252;2022-08-16T12:56:59;6.40;;;4.07;;
46110;SDS011;31849;55.992;37.252;2022-08-16T13:02:04;8.05;;;4.13;;
46110;SDS011;31849;55.992;37.252;2022-08-16T13:07:13;5.50;;;3.95;;
46110;SDS011;31849;55.992;37.252;2022-08-16T13:12:17;8.88;;;4.57;;
46110;SDS011;31849;55.992;37.252;2022-08-16T13:17:27;9.55;;;4.22;;
46110;SDS011;31849;55.992;37.252;2022-08-16T13:22:30;6.40;;;4.30;;
46110;SDS011;31849;55.992;37.252;2022-08-16T13:27:34;6.05;;;4.15;;
46110;SDS011;31849;55.992;37.252;2022-08-16T13:38:12;9.48;;;4.40;;
46110;SDS011;31849;55.992;37.252;2022-08-16T13:43:26;9.32;;;4.60;;
46110;SDS011;31849;55.992;37.252;2022-08-16T13:48:34;5.60;;;4.30;;
46110;SDS011;31849;55.992;37.252;2022-08-16T13:53:45;6.07;;;4.00;;
46110;SDS011;31849;55.992;37.252;2022-08-16T13:59:03;7.97;;;4.85;;
46110;SDS011;31849;55.992;37.252;2022-08-16T14:04:22;8.27;;;4.45;;
46110;SDS011;31849;55.992;37.252;2022-08-16T14:09:27;7.75;;;3.88;;
46110;SDS011;31849;55.992;37.252;2022-08-16T14:14:33;7.22;;;4.63;;
46110;SDS011;31849;55.992;37.252;2022-08-16T14:19:39;6.55;;;4.60;;
46110;SDS011;31849;55.992;37.252;2022-08-16T14:24:46;9.85;;;4.60;;
46110;SDS011;31849;55.992;37.252;2022-08-16T14:29:51;6.70;;;4.40;;
46110;SDS011;31849;55.992;37.252;2022-08-16T14:34:57;5.43;;;3.90;;
46110;SDS011;31849;55.992;37.252;2022-08-16T14:40:04;6.97;;;4.30;;
46110;SDS011;31849;55.992;37.252;2022-08-16T14:45:11;6.82;;;4.60;;
46110;SDS011;31849;55.992;37.252;2022-08-16T14:50:19;9.07;;;4.95;;
46110;SDS011;31849;55.992;37.252;2022-08-16T14:55:28;5.80;;;4.40;;
46110;SDS011;31849;55.992;37.252;2022-08-16T15:00:32;7.38;;;4.30;;
46110;SDS011;31849;55.992;37.252;2022-08-16T15:05:39;6.85;;;4.95;;
46110;SDS011;31849;55.992;37.252;2022-08-16T15:10:43;7.97;;;5.28;;
46110;SDS011;31849;55.992;37.252;2022-08-16T15:15:47;8.32;;;4.75;;
46110;SDS011;31849;55.992;37.252;2022-08-16T15:21:03;10.02;;;4.53;;
46110;SDS011;31849;55.992;37.252;2022-08-16T15:26:09;9.10;;;4.65;;
46110;SDS011;31849;55.992;37.252;2022-08-16T15:31:33;8.40;;;5.45;;
46110;SDS011;31849;55.992;37.252;2022-08-16T15:36:39;8.90;;;5.18;;
46110;SDS011;31849;55.992;37.252;2022-08-16T15:41:54;5.78;;;5.10;;
46110;SDS011;31849;55.992;37.252;2022-08-16T15:47:03;8.05;;;5.07;;
46110;SDS011;31849;55.992;37.252;2022-08-16T15:52:11;10.55;;;5.70;;
46110;SDS011;31849;55.992;37.252;2022-08-16T15:57:21;12.82;;;5.57;;
46110;SDS011;31849;55.992;37.252;2022-08-16T16:02:25;7.65;;;5.18;;
46110;SDS011;31849;55.992;37.252;2022-08-16T16:07:33;8.68;;;6.13;;
46110;SDS011;31849;55.992;37.252;2022-08-16T16:12:54;7.53;;;5.53;;
46110;SDS011;31849;55.992;37.252;2022-08-16T16:17:59;10.45;;;6.07;;
46110;SDS011;31849;55.992;37.252;2022-08-16T16:23:12;12.48;;;6.40;;
46110;SDS011;31849;55.992;37.252;2022-08-16T16:28:19;12.70;;;6.07;;
46110;SDS011;31849;55.992;37.252;2022-08-16T16:33:46;10.68;;;6.35;;
46110;SDS011;31849;55.992;37.252;2022-08-16T16:38:52;10.13;;;6.22;;
46110;SDS011;31849;55.992;37.252;2022-08-16T16:43:56;9.93;;;6.65;;
46110;SDS011;31849;55.992;37.252;2022-08-16T16:49:03;15.18;;;6.60;;
46110;SDS011;31849;55.992;37.252;2022-08-16T16:54:09;12.77;;;6.70;;
46110;SDS011;31849;55.992;37.252;2022-08-16T16:59:13;18.00;;;7.38;;
46110;SDS011;31849;55.992;37.252;2022-08-16T17:04:19;13.73;;;7.43;;
46110;SDS011;31849;55.992;37.252;2022-08-16T17:09:34;10.95;;;6.95;;
46110;SDS011;31849;55.992;37.252;2022-08-16T17:14:41;12.50;;;7.00;;
46110;SDS011;31849;55.992;37.252;2022-08-16T17:19:46;14.45;;;6.88;;
46110;SDS011;31849;55.992;37.252;2022-08-16T17:24:51;11.77;;;7.90;;
46110;SDS011;31849;55.992;37.252;2022-08-16T17:29:55;13.80;;;8.70;;
46110;SDS011;31849;55.992;37.252;2022-08-16T17:35:01;13.40;;;8.65;;
46110;SDS011;31849;55.992;37.252;2022-08-16T17:40:13;15.30;;;9.63;;
46110;SDS011;31849;55.992;37.252;2022-08-16T17:45:37;14.73;;;9.98;;
46110;SDS011;31849;55.992;37.252;2022-08-16T17:50:41;16.05;;;10.00;;
46110;SDS011;31849;55.992;37.252;2022-08-16T17:55:48;19.15;;;10.45;;
46110;SDS011;31849;55.992;37.252;2022-08-16T18:00:52;13.75;;;10.20;;
46110;SDS011;31849;55.992;37.252;2022-08-16T18:05:58;17.50;;;10.20;;
46110;SDS011;31849;55.992;37.252;2022-08-16T18:11:02;14.27;;;11.10;;
46110;SDS011;31849;55.992;37.252;2022-08-16T18:16:08;14.88;;;11.15;;
46110;SDS011;31849;55.992;37.252;2022-08-16T18:21:12;15.80;;;9.95;;
46110;SDS011;31849;55.992;37.252;2022-08-16T18:26:36;19.65;;;10.90;;
46110;SDS011;31849;55.992;37.252;2022-08-16T18:31:40;19.77;;;12.93;;
46110;SDS011;31849;55.992;37.252;2022-08-16T18:36:43;21.75;;;14.18;;
46110;SDS011;31849;55.992;37.252;2022-08-16T18:41:48;25.30;;;14.13;;
46110;SDS011;31849;55.992;37.252;2022-08-16T18:46:52;16.52;;;10.82;;
46110;SDS011;31849;55.992;37.252;2022-08-16T18:51:55;23.35;;;12.80;;
46110;SDS011;31849;55.992;37.252;2022-08-16T18:57:01;22.33;;;13.63;;
46110;SDS011;31849;55.992;37.252;2022-08-16T19:02:08;18.27;;;11.60;;
46110;SDS011;31849;55.992;37.252;2022-08-16T19:07:31;25.15;;;13.00;;
46110;SDS011;31849;55.992;37.252;2022-08-16T19:12:36;26.17;;;13.93;;
46110;SDS011;31849;55.992;37.252;2022-08-16T19:17:43;24.33;;;13.43;;
46110;SDS011;31849;55.992;37.252;2022-08-16T19:22:47;22.88;;;13.98;;
46110;SDS011;31849;55.992;37.252;2022-08-16T19:28:12;23.27;;;14.60;;
46110;SDS011;31849;55.992;37.252;2022-08-16T19:33:36;22.27;;;15.25;;
46110;SDS011;31849;55.992;37.252;2022-08-16T19:43:46;23.90;;;15.73;;
46110;SDS011;31849;55.992;37.252;2022-08-16T19:48:49;21.95;;;15.23;;
46110;SDS011;31849;55.992;37.252;2022-08-16T19:53:53;21.90;;;15.80;;
46110;SDS011;31849;55.992;37.252;2022-08-16T19:58:57;19.02;;;14.90;;
46110;SDS011;31849;55.992;37.252;2022-08-16T20:04:21;24.55;;;16.05;;
46110;SDS011;31849;55.992;37.252;2022-08-16T20:09:26;21.52;;;16.02;;
46110;SDS011;31849;55.992;37.252;2022-08-16T20:14:32;20.35;;;16.80;;
46110;SDS011;31849;55.992;37.252;2022-08-16T20:19:36;20.75;;;15.25;;
46110;SDS011;31849;55.992;37.252;2022-08-16T20:24:41;19.48;;;16.10;;
46110;SDS011;31849;55.992;37.252;2022-08-16T20:34:51;21.63;;;16.42;;
46110;SDS011;31849;55.992;37.252;2022-08-16T20:39:56;21.25;;;16.33;;
46110;SDS011;31849;55.992;37.252;2022-08-16T20:45:20;20.33;;;16.90;;
46110;SDS011;31849;55.992;37.252;2022-08-16T20:50:28;22.70;;;16.90;;
46110;SDS011;31849;55.992;37.252;2022-08-16T20:55:32;22.25;;;17.55;;
46110;SDS011;31849;55.992;37.252;2022-08-16T21:00:38;21.15;;;17.25;;
46110;SDS011;31849;55.992;37.252;2022-08-16T21:05:41;22.10;;;16.98;;
46110;SDS011;31849;55.992;37.252;2022-08-16T21:10:46;25.15;;;17.73;;
46110;SDS011;31849;55.992;37.252;2022-08-16T21:20:55;22.15;;;16.23;;
46110;SDS011;31849;55.992;37.252;2022-08-16T21:26:05;25.02;;;17.27;;
46110;SDS011;31849;55.992;37.252;2022-08-16T21:36:41;20.13;;;16.17;;
46110;SDS011;31849;55.992;37.252;2022-08-16T21:41:58;20.38;;;17.27;;
46110;SDS011;31849;55.992;37.252;2022-08-16T21:47:03;23.55;;;17.80;;
46110;SDS011;31849;55.992;37.252;2022-08-16T21:52:10;23.00;;;17.13;;
46110;SDS011;31849;55.992;37.252;2022-08-16T21:57:27;19.92;;;17.02;;
46110;SDS011;31849;55.992;37.252;2022-08-16T22:02:40;23.08;;;16.90;;
46110;SDS011;31849;55.992;37.252;2022-08-16T22:07:48;20.83;;;16.35;;
46110;SDS011;31849;55.992;37.252;2022-08-16T22:13:13;23.50;;;16.73;;
46110;SDS011;31849;55.992;37.252;2022-08-16T22:18:20;18.70;;;15.80;;
46110;SDS011;31849;55.992;37.252;2022-08-16T22:23:24;19.83;;;15.98;;
46110;SDS011;31849;55.992;37.252;2022-08-16T22:28:32;19.88;;;16.95;;
46110;SDS011;31849;55.992;37.252;2022-08-16T22:33:38;21.10;;;16.73;;
46110;SDS011;31849;55.992;37.252;2022-08-16T22:38:47;22.17;;;16.40;;
46110;SDS011;31849;55.992;37.252;2022-08-16T22:43:57;20.30;;;16.35;;
46110;SDS011;31849;55.992;37.252;2022-08-16T22:49:03;20.23;;;16.40;;
46110;SDS011;31849;55.992;37.252;2022-08-16T22:54:20;21.48;;;15.52;;
46110;SDS011;31849;55.992;37.252;2022-08-16T22:59:44;19.88;;;15.02;;
46110;SDS011;31849;55.992;37.252;2022-08-16T23:04:55;23.08;;;15.45;;
46110;SDS011;31849;55.992;37.252;2022-08-16T23:09:59;20.20;;;15.73;;
46110;SDS011;31849;55.992;37.252;2022-08-16T23:15:11;17.30;;;15.27;;
46110;SDS011;31849;55.992;37.252;2022-08-16T23:20:16;21.83;;;15.70;;
46110;SDS011;31849;55.992;37.252;2022-08-16T23:25:25;16.95;;;14.55;;
46110;SDS011;31849;55.992;37.252;2022-08-16T23:30:34;17.92;;;14.60;;
46110;SDS011;31849;55.992;37.252;2022-08-16T23:35:43;19.30;;;14.10;;
46110;SDS011;31849;55.992;37.252;2022-08-16T23:40:48;16.98;;;14.80;;
46110;SDS011;31849;55.992;37.252;2022-08-16T23:45:53;19.05;;;15.65;;
46110;SDS011;31849;55.992;37.252;2022-08-16T23:51:07;21.90;;;15.13;;
46110;SDS011;31849;55.992;37.252;2022-08-16T23:56:17;18.45;;;14.25;;
